createdAt,value
2018-08-31T00:00:36.269Z,99.37
2018-08-31T00:01:36.245Z,99.47
2018-08-31T00:02:36.219Z,99.47
2018-08-31T00:03:36.196Z,99.47
2018-08-31T00:04:36.172Z,99.28
2018-08-31T00:05:36.146Z,98.80
2018-08-31T00:06:36.121Z,99.47
2018-08-31T00:07:36.097Z,99.57
2018-08-31T00:08:36.074Z,99.28
2018-08-31T00:09:36.049Z,99.57
2018-08-31T00:10:36.025Z,99.28
2018-08-31T00:11:36.001Z,99.18
2018-08-31T00:12:35.975Z,99.37
2018-08-31T00:13:35.952Z,99.08
2018-08-31T00:14:35.927Z,99.99
2018-08-31T00:15:35.903Z,99.95
2018-08-31T00:16:35.877Z,99.47
2018-08-31T00:17:35.855Z,99.76
2018-08-31T00:18:35.829Z,99.28
2018-08-31T00:19:35.804Z,99.47
2018-08-31T00:20:35.780Z,99.08
2018-08-31T00:21:35.757Z,99.57
2018-08-31T00:22:35.730Z,98.80
2018-08-31T00:23:35.709Z,99.37
2018-08-31T00:24:35.683Z,99.57
2018-08-31T00:25:35.658Z,99.08
2018-08-31T00:26:35.633Z,99.08
2018-08-31T00:27:35.608Z,99.57
2018-08-31T00:28:35.584Z,99.66
2018-08-31T00:29:35.561Z,99.95
2018-08-31T00:30:35.534Z,99.37
2018-08-31T00:31:35.511Z,99.57
2018-08-31T00:32:35.490Z,99.57
2018-08-31T00:33:35.463Z,99.28
2018-08-31T00:34:35.437Z,99.28
2018-08-31T00:35:35.413Z,99.28
2018-08-31T00:36:35.389Z,99.47
2018-08-31T00:37:35.365Z,99.37
2018-08-31T00:38:35.339Z,99.99
2018-08-31T00:39:35.314Z,99.95
2018-08-31T00:40:35.291Z,99.99
2018-08-31T00:41:35.265Z,99.99
2018-08-31T00:42:35.240Z,99.76
2018-08-31T00:43:35.216Z,99.95
2018-08-31T00:44:35.193Z,99.95
2018-08-31T00:45:35.167Z,99.99
2018-08-31T00:46:35.142Z,99.66
2018-08-31T00:47:35.119Z,99.99
2018-08-31T00:48:35.093Z,99.99
2018-08-31T00:49:35.069Z,99.99
2018-08-31T00:50:35.043Z,99.99
2018-08-31T00:51:35.021Z,99.99
2018-08-31T00:52:34.996Z,99.99
2018-08-31T00:53:34.970Z,99.99
2018-08-31T00:54:34.945Z,99.99
2018-08-31T00:55:34.925Z,99.99
2018-08-31T00:56:34.897Z,99.99
2018-08-31T00:57:34.872Z,99.99
2018-08-31T00:58:34.847Z,99.99
2018-08-31T00:59:34.824Z,99.99
2018-08-31T01:00:34.799Z,99.99
2018-08-31T01:01:34.775Z,99.99
2018-08-31T01:02:34.749Z,99.99
2018-08-31T01:03:34.725Z,99.99
2018-08-31T01:04:34.703Z,99.76
2018-08-31T01:05:34.676Z,99.99
2018-08-31T01:06:34.651Z,99.99
2018-08-31T01:07:34.627Z,99.66
2018-08-31T01:08:34.601Z,99.99
2018-08-31T01:09:34.577Z,99.95
2018-08-31T01:10:34.553Z,99.99
2018-08-31T01:11:34.529Z,99.90
2018-08-31T01:12:34.505Z,99.71
2018-08-31T01:13:34.480Z,99.99
2018-08-31T01:14:34.454Z,99.99
2018-08-31T01:15:34.429Z,99.99
2018-08-31T01:16:34.406Z,99.99
2018-08-31T01:17:34.381Z,99.99
2018-08-31T01:18:34.356Z,99.99
2018-08-31T01:19:34.330Z,99.99
2018-08-31T01:20:34.310Z,99.99
2018-08-31T01:21:34.282Z,99.95
2018-08-31T01:22:34.256Z,99.95
2018-08-31T01:23:34.237Z,99.66
2018-08-31T01:24:34.208Z,99.85
2018-08-31T01:25:34.186Z,99.47
2018-08-31T01:26:34.159Z,99.99
2018-08-31T01:27:34.133Z,99.99
2018-08-31T01:28:34.109Z,99.66
2018-08-31T01:29:34.084Z,99.28
2018-08-31T01:30:34.058Z,99.85
2018-08-31T01:31:34.033Z,99.95
2018-08-31T01:32:34.012Z,99.47
2018-08-31T01:33:33.986Z,99.76
2018-08-31T01:34:33.960Z,99.71
2018-08-31T01:35:33.935Z,99.76
2018-08-31T01:36:33.908Z,99.85
2018-08-31T01:37:33.885Z,99.66
2018-08-31T01:38:33.860Z,99.32
2018-08-31T01:39:33.835Z,99.85
2018-08-31T01:40:33.809Z,99.76
2018-08-31T01:41:33.784Z,99.85
2018-08-31T01:42:33.760Z,99.76
2018-08-31T01:43:33.734Z,99.37
2018-08-31T01:44:33.715Z,99.28
2018-08-31T01:45:33.685Z,99.99
2018-08-31T01:46:33.659Z,99.99
2018-08-31T01:47:33.638Z,99.76
2018-08-31T01:48:33.614Z,99.23
2018-08-31T01:49:33.588Z,99.57
2018-08-31T01:50:33.564Z,99.99
2018-08-31T01:51:33.536Z,99.99
2018-08-31T01:52:33.544Z,99.71
2018-08-31T01:53:33.488Z,99.99
2018-08-31T01:54:33.462Z,99.99
2018-08-31T01:55:33.437Z,99.99
2018-08-31T01:56:33.412Z,99.99
2018-08-31T01:57:33.387Z,99.99
2018-08-31T01:58:33.361Z,99.99
2018-08-31T01:59:33.338Z,99.99
2018-08-31T02:00:33.312Z,99.99
2018-08-31T02:01:33.288Z,99.99
2018-08-31T02:02:33.261Z,99.99
2018-08-31T02:03:33.237Z,99.99
2018-08-31T02:04:33.214Z,99.99
2018-08-31T02:05:33.189Z,99.99
2018-08-31T02:06:33.163Z,99.99
2018-08-31T02:07:33.139Z,99.99
2018-08-31T02:08:33.117Z,99.99
2018-08-31T02:09:33.091Z,99.99
2018-08-31T02:10:33.064Z,99.99
2018-08-31T02:11:33.039Z,99.99
2018-08-31T02:12:33.015Z,99.99
2018-08-31T02:13:32.989Z,99.99
2018-08-31T02:14:32.967Z,99.99
2018-08-31T02:15:32.941Z,99.99
2018-08-31T02:16:32.916Z,99.99
2018-08-31T02:17:32.891Z,99.99
2018-08-31T02:18:32.865Z,99.99
2018-08-31T02:19:32.841Z,99.99
2018-08-31T02:20:32.815Z,99.99
2018-08-31T02:21:32.791Z,99.99
2018-08-31T02:22:32.764Z,99.99
2018-08-31T02:23:32.739Z,99.99
2018-08-31T02:24:32.715Z,99.99
2018-08-31T02:25:32.689Z,99.99
2018-08-31T02:26:32.663Z,99.99
2018-08-31T02:27:32.643Z,99.99
2018-08-31T02:28:32.614Z,99.99
2018-08-31T02:29:32.590Z,99.99
2018-08-31T02:30:32.563Z,99.99
2018-08-31T02:31:32.540Z,99.99
2018-08-31T02:32:32.517Z,99.99
2018-08-31T02:33:32.489Z,99.99
2018-08-31T02:34:32.467Z,99.99
2018-08-31T02:35:32.439Z,99.99
2018-08-31T02:36:32.415Z,99.99
2018-08-31T02:37:32.387Z,99.99
2018-08-31T02:38:32.363Z,99.99
2018-08-31T02:39:32.338Z,99.99
2018-08-31T02:40:32.312Z,99.99
2018-08-31T02:41:32.287Z,99.99
2018-08-31T02:42:32.261Z,99.99
2018-08-31T02:43:32.239Z,99.99
2018-08-31T02:44:32.209Z,99.99
2018-08-31T02:45:32.189Z,99.99
2018-08-31T02:46:32.164Z,99.99
2018-08-31T02:47:32.139Z,99.99
2018-08-31T02:48:32.109Z,99.99
2018-08-31T02:49:32.085Z,99.99
2018-08-31T02:50:32.058Z,99.99
2018-08-31T02:51:32.034Z,99.99
2018-08-31T02:52:32.007Z,99.99
2018-08-31T02:53:31.986Z,99.99
2018-08-31T02:54:31.960Z,99.99
2018-08-31T02:55:31.931Z,99.99
2018-08-31T02:56:31.906Z,99.99
2018-08-31T02:57:31.881Z,99.99
2018-08-31T02:58:31.859Z,99.99
2018-08-31T02:59:31.829Z,99.99
2018-08-31T03:00:31.804Z,99.99
2018-08-31T03:01:31.781Z,99.99
2018-08-31T03:02:31.753Z,99.99
2018-08-31T03:03:31.728Z,99.99
2018-08-31T03:04:31.704Z,99.99
2018-08-31T03:05:31.677Z,99.99
2018-08-31T03:06:31.649Z,99.99
2018-08-31T03:07:31.624Z,99.99
2018-08-31T03:08:31.599Z,99.99
2018-08-31T03:09:31.575Z,99.99
2018-08-31T03:10:31.550Z,99.99
2018-08-31T03:11:31.559Z,99.99
2018-08-31T03:12:31.495Z,99.99
2018-08-31T03:13:31.471Z,99.99
2018-08-31T03:14:31.444Z,99.99
2018-08-31T03:15:31.419Z,99.99
2018-08-31T03:16:31.396Z,99.99
2018-08-31T03:17:31.368Z,99.99
2018-08-31T03:18:31.346Z,99.99
2018-08-31T03:19:31.323Z,99.99
2018-08-31T03:20:31.292Z,99.99
2018-08-31T03:21:31.266Z,99.99
2018-08-31T03:22:31.239Z,99.99
2018-08-31T03:23:31.211Z,99.99
2018-08-31T03:24:31.190Z,99.99
2018-08-31T03:25:31.162Z,99.99
2018-08-31T03:26:31.139Z,99.99
2018-08-31T03:27:31.114Z,99.99
2018-08-31T03:28:31.085Z,99.99
2018-08-31T03:29:31.059Z,99.99
2018-08-31T03:30:31.032Z,99.99
2018-08-31T03:31:31.008Z,99.99
2018-08-31T03:32:30.982Z,99.99
2018-08-31T03:33:30.954Z,99.99
2018-08-31T03:34:30.929Z,99.99
2018-08-31T03:35:30.905Z,99.99
2018-08-31T03:36:30.878Z,99.99
2018-08-31T03:37:30.852Z,99.99
2018-08-31T03:38:30.826Z,99.99
2018-08-31T03:39:30.800Z,99.99
2018-08-31T03:40:30.776Z,99.99
2018-08-31T03:41:30.748Z,99.99
2018-08-31T03:42:30.721Z,99.99
2018-08-31T03:43:30.696Z,99.99
2018-08-31T03:44:30.669Z,99.99
2018-08-31T03:45:30.643Z,99.99
2018-08-31T03:46:30.617Z,99.99
2018-08-31T03:47:30.594Z,99.99
2018-08-31T03:48:30.574Z,99.99
2018-08-31T03:49:30.541Z,99.99
2018-08-31T03:50:30.513Z,99.99
2018-08-31T03:51:30.487Z,99.99
2018-08-31T03:52:30.463Z,99.99
2018-08-31T03:53:30.435Z,99.99
2018-08-31T03:54:30.409Z,99.99
2018-08-31T03:55:30.383Z,99.99
2018-08-31T03:56:30.357Z,99.99
2018-08-31T03:57:30.331Z,99.99
2018-08-31T03:58:30.304Z,99.99
2018-08-31T03:59:30.278Z,99.99
2018-08-31T04:00:30.266Z,99.99
2018-08-31T04:01:30.227Z,99.99
2018-08-31T04:02:30.198Z,99.99
2018-08-31T04:03:30.172Z,99.99
2018-08-31T04:04:30.147Z,99.99
2018-08-31T04:05:30.121Z,99.99
2018-08-31T04:06:30.094Z,99.99
2018-08-31T04:07:30.068Z,99.99
2018-08-31T04:08:30.044Z,99.99
2018-08-31T04:09:30.015Z,99.99
2018-08-31T04:10:29.988Z,99.99
2018-08-31T04:11:29.966Z,99.99
2018-08-31T04:12:29.937Z,99.99
2018-08-31T04:13:29.913Z,99.99
2018-08-31T04:14:29.885Z,99.99
2018-08-31T04:15:29.857Z,99.99
2018-08-31T04:16:29.831Z,99.99
2018-08-31T04:17:29.810Z,99.99
2018-08-31T04:18:29.792Z,99.99
2018-08-31T04:19:29.753Z,99.99
2018-08-31T04:20:29.727Z,99.99
2018-08-31T04:21:29.700Z,99.99
2018-08-31T04:22:29.674Z,99.99
2018-08-31T04:23:29.646Z,99.99
2018-08-31T04:24:29.620Z,99.99
2018-08-31T04:25:29.600Z,99.99
2018-08-31T04:26:29.568Z,99.99
2018-08-31T04:27:29.541Z,99.99
2018-08-31T04:28:29.516Z,99.99
2018-08-31T04:29:29.491Z,99.99
2018-08-31T04:30:29.462Z,99.99
2018-08-31T04:31:29.438Z,99.99
2018-08-31T04:32:29.409Z,99.99
2018-08-31T04:33:29.384Z,99.99
2018-08-31T04:34:29.362Z,99.99
2018-08-31T04:35:29.335Z,99.99
2018-08-31T04:36:29.304Z,99.99
2018-08-31T04:37:29.278Z,99.99
2018-08-31T04:38:29.253Z,99.99
2018-08-31T04:39:29.226Z,99.99
2018-08-31T04:40:29.198Z,99.99
2018-08-31T04:41:29.173Z,99.99
2018-08-31T04:42:29.146Z,99.99
2018-08-31T04:43:29.121Z,99.99
2018-08-31T04:44:29.093Z,99.99
2018-08-31T04:45:29.067Z,99.99
2018-08-31T04:46:29.041Z,99.99
2018-08-31T04:47:29.015Z,99.99
2018-08-31T04:48:28.989Z,99.99
2018-08-31T04:49:28.967Z,99.99
2018-08-31T04:50:28.989Z,99.99
2018-08-31T04:51:28.912Z,99.99
2018-08-31T04:52:28.883Z,99.99
2018-08-31T04:53:28.858Z,99.99
2018-08-31T04:54:28.831Z,99.99
2018-08-31T04:55:28.804Z,99.99
2018-08-31T04:56:28.777Z,99.99
2018-08-31T04:57:28.752Z,99.99
2018-08-31T04:58:28.725Z,99.99
2018-08-31T04:59:28.700Z,99.99
2018-08-31T05:00:28.672Z,99.99
2018-08-31T05:01:28.646Z,99.99
2018-08-31T05:02:28.621Z,99.99
2018-08-31T05:03:28.596Z,99.99
2018-08-31T05:04:28.568Z,99.99
2018-08-31T05:05:28.542Z,99.99
2018-08-31T05:06:28.515Z,99.99
2018-08-31T05:07:28.489Z,99.99
2018-08-31T05:08:28.462Z,99.99
2018-08-31T05:09:28.436Z,99.99
2018-08-31T05:10:28.412Z,99.99
2018-08-31T05:11:28.587Z,99.99
2018-08-31T05:12:28.399Z,99.99
2018-08-31T05:13:28.336Z,99.99
2018-08-31T05:14:28.305Z,99.99
2018-08-31T05:15:28.280Z,99.99
2018-08-31T05:16:28.254Z,99.99
2018-08-31T05:17:28.228Z,99.99
2018-08-31T05:18:28.201Z,99.99
2018-08-31T05:19:28.176Z,99.99
2018-08-31T05:20:28.151Z,99.99
2018-08-31T05:21:28.126Z,99.99
2018-08-31T05:22:28.129Z,99.99
2018-08-31T05:23:28.075Z,99.99
2018-08-31T05:24:28.046Z,99.99
2018-08-31T05:25:28.021Z,99.99
2018-08-31T05:26:27.992Z,99.99
2018-08-31T05:27:27.968Z,99.99
2018-08-31T05:28:27.973Z,99.99
2018-08-31T05:29:27.917Z,99.99
2018-08-31T05:30:27.889Z,99.99
2018-08-31T05:31:27.866Z,99.99
2018-08-31T05:32:27.841Z,99.99
2018-08-31T05:33:27.818Z,99.99
2018-08-31T05:34:27.792Z,99.99
2018-08-31T05:35:27.761Z,99.99
2018-08-31T05:36:27.737Z,99.99
2018-08-31T05:37:27.710Z,99.99
2018-08-31T05:38:27.685Z,99.99
2018-08-31T05:39:27.661Z,99.99
2018-08-31T05:40:27.635Z,98.99
2018-08-31T05:41:27.609Z,96.89
2018-08-31T05:42:27.587Z,96.89
2018-08-31T05:43:27.559Z,96.08
2018-08-31T05:44:27.535Z,94.02
2018-08-31T05:45:27.516Z,92.30
2018-08-31T05:46:27.489Z,92.35
2018-08-31T05:47:27.462Z,90.01
2018-08-31T05:48:27.437Z,89.29
2018-08-31T05:49:27.416Z,89.09
2018-08-31T05:50:27.390Z,88.95
2018-08-31T05:51:27.368Z,87.70
2018-08-31T05:52:27.345Z,87.51
2018-08-31T05:53:27.387Z,85.69
2018-08-31T05:54:27.298Z,85.84
2018-08-31T05:55:27.275Z,87.27
2018-08-31T05:56:27.253Z,87.32
2018-08-31T05:57:27.231Z,86.41
2018-08-31T05:58:27.205Z,85.16
2018-08-31T05:59:27.184Z,83.67
2018-08-31T06:00:27.162Z,83.09
2018-08-31T06:01:27.141Z,81.95
2018-08-31T06:02:27.118Z,81.46
2018-08-31T06:03:27.096Z,81.56
2018-08-31T06:04:27.074Z,81.46
2018-08-31T06:05:27.054Z,81.46
2018-08-31T06:06:27.031Z,80.79
2018-08-31T06:07:27.010Z,80.93
2018-08-31T06:08:26.989Z,79.49
2018-08-31T06:09:26.974Z,80.45
2018-08-31T06:10:26.945Z,79.68
2018-08-31T06:11:26.925Z,79.78
2018-08-31T06:12:26.904Z,79.30
2018-08-31T06:13:26.883Z,79.91
2018-08-31T06:14:26.864Z,77.90
2018-08-31T06:15:26.840Z,77.71
2018-08-31T06:16:26.820Z,76.69
2018-08-31T06:17:26.798Z,76.54
2018-08-31T06:18:26.776Z,75.42
2018-08-31T06:19:26.758Z,74.08
2018-08-31T06:20:26.736Z,73.50
2018-08-31T06:21:26.716Z,72.25
2018-08-31T06:22:26.696Z,72.92
2018-08-31T06:23:26.676Z,72.44
2018-08-31T06:24:26.655Z,71.96
2018-08-31T06:25:26.635Z,72.92
2018-08-31T06:26:26.616Z,71.48
2018-08-31T06:27:26.596Z,72.31
2018-08-31T06:28:26.577Z,72.73
2018-08-31T06:29:26.556Z,72.34
2018-08-31T06:30:26.542Z,72.64
2018-08-31T06:31:26.516Z,72.64
2018-08-31T06:32:26.498Z,72.00
2018-08-31T06:33:26.478Z,70.94
2018-08-31T06:34:26.458Z,70.37
2018-08-31T06:35:26.463Z,70.11
2018-08-31T06:36:26.421Z,69.34
2018-08-31T06:37:26.399Z,68.70
2018-08-31T06:38:26.380Z,67.35
2018-08-31T06:39:26.372Z,66.97
2018-08-31T06:40:26.342Z,67.26
2018-08-31T06:41:26.324Z,66.58
2018-08-31T06:42:26.304Z,66.39
2018-08-31T06:43:26.284Z,66.04
2018-08-31T06:44:26.265Z,66.78
2018-08-31T06:45:26.248Z,67.83
2018-08-31T06:46:26.227Z,66.71
2018-08-31T06:47:26.214Z,66.14
2018-08-31T06:48:26.190Z,65.75
2018-08-31T06:49:26.173Z,65.46
2018-08-31T06:50:26.153Z,65.40
2018-08-31T06:51:26.144Z,63.89
2018-08-31T06:52:26.115Z,62.63
2018-08-31T06:53:26.096Z,62.73
2018-08-31T06:54:26.080Z,61.99
2018-08-31T06:55:26.060Z,60.93
2018-08-31T06:56:26.042Z,60.74
2018-08-31T06:57:26.027Z,60.55
2018-08-31T06:58:26.006Z,62.22
2018-08-31T06:59:25.989Z,59.61
2018-08-31T07:00:25.968Z,59.03
2018-08-31T07:01:25.953Z,59.55
2018-08-31T07:02:25.932Z,58.77
2018-08-31T07:03:25.915Z,57.65
2018-08-31T07:04:25.897Z,60.16
2018-08-31T07:05:25.879Z,60.32
2018-08-31T07:06:25.862Z,60.45
2018-08-31T07:07:25.843Z,60.86
2018-08-31T07:08:25.826Z,59.90
2018-08-31T07:09:25.808Z,60.03
2018-08-31T07:10:25.790Z,58.80
2018-08-31T07:11:25.773Z,57.96
2018-08-31T07:12:25.887Z,56.77
2018-08-31T07:13:25.741Z,56.10
2018-08-31T07:14:25.721Z,57.62
2018-08-31T07:15:25.702Z,59.25
2018-08-31T07:16:25.684Z,58.22
2018-08-31T07:17:25.668Z,56.80
2018-08-31T07:18:25.653Z,56.03
2018-08-31T07:19:25.690Z,56.13
2018-08-31T07:20:25.616Z,57.23
2018-08-31T07:21:25.600Z,57.71
2018-08-31T07:22:25.581Z,56.58
2018-08-31T07:23:25.565Z,56.94
2018-08-31T07:24:25.549Z,58.61
2018-08-31T07:25:25.531Z,57.81
2018-08-31T07:26:25.523Z,57.84
2018-08-31T07:27:25.499Z,57.48
2018-08-31T07:28:25.479Z,56.63
2018-08-31T07:29:25.465Z,56.15
2018-08-31T07:30:25.446Z,54.99
2018-08-31T07:31:25.429Z,54.25
2018-08-31T07:32:25.417Z,53.67
2018-08-31T07:33:25.398Z,54.93
2018-08-31T07:34:25.378Z,55.51
2018-08-31T07:35:25.364Z,55.29
2018-08-31T07:36:25.423Z,54.25
2018-08-31T07:37:25.329Z,54.80
2018-08-31T07:38:25.314Z,55.38
2018-08-31T07:39:25.297Z,54.77
2018-08-31T07:40:25.282Z,56.13
2018-08-31T07:41:25.265Z,55.81
2018-08-31T07:42:25.264Z,56.51
2018-08-31T07:43:25.233Z,55.55
2018-08-31T07:44:25.216Z,55.16
2018-08-31T07:45:25.199Z,55.57
2018-08-31T07:46:25.180Z,55.93
2018-08-31T07:47:25.168Z,55.83
2018-08-31T07:48:25.150Z,55.26
2018-08-31T07:49:25.133Z,55.62
2018-08-31T07:50:25.116Z,56.84
2018-08-31T07:51:25.099Z,56.84
2018-08-31T07:52:25.086Z,58.84
2018-08-31T07:53:25.065Z,57.71
2018-08-31T07:54:25.048Z,58.10
2018-08-31T07:55:25.031Z,57.62
2018-08-31T07:56:25.014Z,59.00
2018-08-31T07:57:24.999Z,58.72
2018-08-31T07:58:24.981Z,58.10
2018-08-31T07:59:24.967Z,56.91
2018-08-31T08:00:24.946Z,57.29
2018-08-31T08:01:24.932Z,57.52
2018-08-31T08:02:24.911Z,56.39
2018-08-31T08:03:24.898Z,55.68
2018-08-31T08:04:24.878Z,56.74
2018-08-31T08:05:24.862Z,57.04
2018-08-31T08:06:24.845Z,55.62
2018-08-31T08:07:24.831Z,56.00
2018-08-31T08:08:24.818Z,56.15
2018-08-31T08:09:24.793Z,54.25
2018-08-31T08:10:24.772Z,53.38
2018-08-31T08:11:24.756Z,52.61
2018-08-31T08:12:24.738Z,52.85
2018-08-31T08:13:24.721Z,50.79
2018-08-31T08:14:24.704Z,51.86
2018-08-31T08:15:24.687Z,51.54
2018-08-31T08:16:24.672Z,51.66
2018-08-31T08:17:24.653Z,54.17
2018-08-31T08:18:24.635Z,54.82
2018-08-31T08:19:24.618Z,55.16
2018-08-31T08:20:24.601Z,53.45
2018-08-31T08:21:24.585Z,52.61
2018-08-31T08:22:24.571Z,53.53
2018-08-31T08:23:24.551Z,52.68
2018-08-31T08:24:24.535Z,49.58
2018-08-31T08:25:24.519Z,50.09
2018-08-31T08:26:24.501Z,48.54
2018-08-31T08:27:24.484Z,48.22
2018-08-31T08:28:24.556Z,48.52
2018-08-31T08:29:24.452Z,48.88
2018-08-31T08:30:24.436Z,48.30
2018-08-31T08:31:24.420Z,48.52
2018-08-31T08:32:24.404Z,47.72
2018-08-31T08:33:24.387Z,48.11
2018-08-31T08:34:24.370Z,46.75
2018-08-31T08:35:24.354Z,48.01
2018-08-31T08:36:24.343Z,48.47
2018-08-31T08:37:24.321Z,48.44
2018-08-31T08:38:24.308Z,49.15
2018-08-31T08:39:24.288Z,48.74
2018-08-31T08:40:24.274Z,48.76
2018-08-31T08:41:24.256Z,49.37
2018-08-31T08:42:24.293Z,47.94
2018-08-31T08:43:24.225Z,46.51
2018-08-31T08:44:24.208Z,46.22
2018-08-31T08:45:24.192Z,45.10
2018-08-31T08:46:24.175Z,44.71
2018-08-31T08:47:24.160Z,45.10
2018-08-31T08:48:24.158Z,44.71
2018-08-31T08:49:24.129Z,43.16
2018-08-31T08:50:24.111Z,42.67
2018-08-31T08:51:24.096Z,43.23
2018-08-31T08:52:24.081Z,43.41
2018-08-31T08:53:24.064Z,44.86
2018-08-31T08:54:24.048Z,43.95
2018-08-31T08:55:24.037Z,43.09
2018-08-31T08:56:24.018Z,44.40
2018-08-31T08:57:24.003Z,45.45
2018-08-31T08:58:24.130Z,47.16
2018-08-31T08:59:23.971Z,47.45
2018-08-31T09:00:23.962Z,46.39
2018-08-31T09:01:23.990Z,45.91
2018-08-31T09:02:23.921Z,46.05
2018-08-31T09:03:23.905Z,44.62
2018-08-31T09:04:23.890Z,44.72
2018-08-31T09:05:23.872Z,44.04
2018-08-31T09:06:23.857Z,43.15
2018-08-31T09:07:23.840Z,43.75
2018-08-31T09:08:23.824Z,43.38
2018-08-31T09:09:23.808Z,42.41
2018-08-31T09:10:23.794Z,42.40
2018-08-31T09:11:23.776Z,42.41
2018-08-31T09:12:23.787Z,42.40
2018-08-31T09:13:23.742Z,41.72
2018-08-31T09:14:23.727Z,41.64
2018-08-31T09:15:23.710Z,41.83
2018-08-31T09:16:23.694Z,41.66
2018-08-31T09:17:23.680Z,41.25
2018-08-31T09:18:23.722Z,42.28
2018-08-31T09:19:23.647Z,43.23
2018-08-31T09:20:23.746Z,42.83
2018-08-31T09:21:23.614Z,43.80
2018-08-31T09:22:23.607Z,45.18
2018-08-31T09:23:23.583Z,45.28
2018-08-31T09:24:23.570Z,43.73
2018-08-31T09:25:23.551Z,42.96
2018-08-31T09:26:23.533Z,43.78
2018-08-31T09:27:23.516Z,43.47
2018-08-31T09:28:23.499Z,43.84
2018-08-31T09:29:23.484Z,45.09
2018-08-31T09:30:23.466Z,44.49
2018-08-31T09:31:23.451Z,44.85
2018-08-31T09:32:23.481Z,46.49
2018-08-31T09:33:23.417Z,45.72
2018-08-31T09:34:23.400Z,45.36
2018-08-31T09:35:23.383Z,45.11
2018-08-31T09:36:23.366Z,42.60
2018-08-31T09:37:23.347Z,43.20
2018-08-31T09:38:23.381Z,42.18
2018-08-31T09:39:23.313Z,40.25
2018-08-31T09:40:23.297Z,42.49
2018-08-31T09:41:23.281Z,40.56
2018-08-31T09:42:23.266Z,40.46
2018-08-31T09:43:23.247Z,41.42
2018-08-31T09:44:23.229Z,40.67
2018-08-31T09:45:23.213Z,41.83
2018-08-31T09:46:23.196Z,40.28
2018-08-31T09:47:23.178Z,40.65
2018-08-31T09:48:23.162Z,41.31
2018-08-31T09:49:23.146Z,42.65
2018-08-31T09:50:23.128Z,43.82
2018-08-31T09:51:23.113Z,42.47
2018-08-31T09:52:23.095Z,42.66
2018-08-31T09:53:23.079Z,41.60
2018-08-31T09:54:23.061Z,41.19
2018-08-31T09:55:23.047Z,42.93
2018-08-31T09:56:23.033Z,43.01
2018-08-31T09:57:23.036Z,45.21
2018-08-31T09:58:22.996Z,46.54
2018-08-31T09:59:22.980Z,46.03
2018-08-31T10:00:22.963Z,47.07
2018-08-31T10:01:22.946Z,48.18
2018-08-31T10:02:22.929Z,48.76
2018-08-31T10:03:22.911Z,49.73
2018-08-31T10:04:22.893Z,50.40
2018-08-31T10:05:22.876Z,49.91
2018-08-31T10:06:22.856Z,50.04
2018-08-31T10:07:22.841Z,49.75
2018-08-31T10:08:22.822Z,49.07
2018-08-31T10:09:22.803Z,48.49
2018-08-31T10:10:22.785Z,49.17
2018-08-31T10:11:22.768Z,50.64
2018-08-31T10:12:22.749Z,50.16
2018-08-31T10:13:22.740Z,49.84
2018-08-31T10:14:22.714Z,49.46
2018-08-31T10:15:22.696Z,50.04
2018-08-31T10:16:22.676Z,50.45
2018-08-31T10:17:22.662Z,50.54
2018-08-31T10:18:22.642Z,48.44
2018-08-31T10:19:22.622Z,47.77
2018-08-31T10:20:22.605Z,47.99
2018-08-31T10:21:22.587Z,47.58
2018-08-31T10:22:22.569Z,47.38
2018-08-31T10:23:22.554Z,47.38
2018-08-31T10:24:22.533Z,46.25
2018-08-31T10:25:22.515Z,45.89
2018-08-31T10:26:22.495Z,46.06
2018-08-31T10:27:22.480Z,45.79
2018-08-31T10:28:22.461Z,45.11
2018-08-31T10:29:22.444Z,45.52
2018-08-31T10:30:22.425Z,44.57
2018-08-31T10:31:22.407Z,43.54
2018-08-31T10:32:22.390Z,42.28
2018-08-31T10:33:22.372Z,42.93
2018-08-31T10:34:22.357Z,43.15
2018-08-31T10:35:22.337Z,41.87
2018-08-31T10:36:22.319Z,43.34
2018-08-31T10:37:22.303Z,42.32
2018-08-31T10:38:22.283Z,40.69
2018-08-31T10:39:22.266Z,40.67
2018-08-31T10:40:22.319Z,40.86
2018-08-31T10:41:22.234Z,41.24
2018-08-31T10:42:22.215Z,42.20
2018-08-31T10:43:22.200Z,41.04
2018-08-31T10:44:22.182Z,41.83
2018-08-31T10:45:22.165Z,42.78
2018-08-31T10:46:22.162Z,42.41
2018-08-31T10:47:22.131Z,41.25
2018-08-31T10:48:22.114Z,41.17
2018-08-31T10:49:22.097Z,40.44
2018-08-31T10:50:22.082Z,40.17
2018-08-31T10:51:22.064Z,39.18
2018-08-31T10:52:22.050Z,38.60
2018-08-31T10:53:22.033Z,39.55
2018-08-31T10:54:22.016Z,40.73
2018-08-31T10:55:22.000Z,40.64
2018-08-31T10:56:21.984Z,39.82
2018-08-31T10:57:21.968Z,40.42
2018-08-31T10:58:21.951Z,40.61
2018-08-31T10:59:21.938Z,40.11
2018-08-31T11:00:21.920Z,39.90
2018-08-31T11:01:21.902Z,41.45
2018-08-31T11:02:21.886Z,41.83
2018-08-31T11:03:21.874Z,43.07
2018-08-31T11:04:21.854Z,42.20
2018-08-31T11:05:21.837Z,41.33
2018-08-31T11:06:21.821Z,40.38
2018-08-31T11:07:21.805Z,41.25
2018-08-31T11:08:21.789Z,40.50
2018-08-31T11:09:21.773Z,41.45
2018-08-31T11:10:21.756Z,42.44
2018-08-31T11:11:21.739Z,43.29
2018-08-31T11:12:21.722Z,40.59
2018-08-31T11:13:21.708Z,41.16
2018-08-31T11:14:21.690Z,42.20
2018-08-31T11:15:21.868Z,43.73
2018-08-31T11:16:21.659Z,43.71
2018-08-31T11:17:21.641Z,44.43
2018-08-31T11:18:21.625Z,46.10
2018-08-31T11:19:21.608Z,45.79
2018-08-31T11:20:21.593Z,45.98
2018-08-31T11:21:21.575Z,46.08
2018-08-31T11:22:21.559Z,46.44
2018-08-31T11:23:21.541Z,46.90
2018-08-31T11:24:21.526Z,48.16
2018-08-31T11:25:21.509Z,48.25
2018-08-31T11:26:21.492Z,49.10
2018-08-31T11:27:21.473Z,48.52
2018-08-31T11:28:21.456Z,48.03
2018-08-31T11:29:21.439Z,47.55
2018-08-31T11:30:21.421Z,47.85
2018-08-31T11:31:21.404Z,48.61
2018-08-31T11:32:21.387Z,48.42
2018-08-31T11:33:21.369Z,49.10
2018-08-31T11:34:21.360Z,49.68
2018-08-31T11:35:21.334Z,48.33
2018-08-31T11:36:21.316Z,47.63
2018-08-31T11:37:21.298Z,48.52
2018-08-31T11:38:21.280Z,47.75
2018-08-31T11:39:21.262Z,47.94
2018-08-31T11:40:21.244Z,47.17
2018-08-31T11:41:21.226Z,47.45
2018-08-31T11:42:21.209Z,46.23
2018-08-31T11:43:21.225Z,45.96
2018-08-31T11:44:21.173Z,44.43
2018-08-31T11:45:21.156Z,42.52
2018-08-31T11:46:21.138Z,42.35
2018-08-31T11:47:21.121Z,41.79
2018-08-31T11:48:21.102Z,43.99
2018-08-31T11:49:21.085Z,43.23
2018-08-31T11:50:21.068Z,42.91
2018-08-31T11:51:21.049Z,43.76
2018-08-31T11:52:21.040Z,44.53
2018-08-31T11:53:21.016Z,45.00
2018-08-31T11:54:20.999Z,45.18
2018-08-31T11:55:21.131Z,45.89
2018-08-31T11:56:20.964Z,44.56
2018-08-31T11:57:20.947Z,44.02
2018-08-31T11:58:20.929Z,44.09
2018-08-31T11:59:20.911Z,42.62
2018-08-31T12:00:20.895Z,44.34
2018-08-31T12:01:20.911Z,44.70
2018-08-31T12:02:20.859Z,45.38
2018-08-31T12:03:20.843Z,46.44
2018-08-31T12:04:20.826Z,45.75
2018-08-31T12:05:20.814Z,46.81
2018-08-31T12:06:20.790Z,47.19
2018-08-31T12:07:20.773Z,46.71
2018-08-31T12:08:20.755Z,45.28
2018-08-31T12:09:20.738Z,44.36
2018-08-31T12:10:20.720Z,42.37
2018-08-31T12:11:20.703Z,42.18
2018-08-31T12:12:20.686Z,40.50
2018-08-31T12:13:20.674Z,40.23
2018-08-31T12:14:20.650Z,38.58
2018-08-31T12:15:20.641Z,39.67
2018-08-31T12:16:20.620Z,37.94
2018-08-31T12:17:20.602Z,36.48
2018-08-31T12:18:20.584Z,36.40
2018-08-31T12:19:20.568Z,36.04
2018-08-31T12:20:20.550Z,35.72
2018-08-31T12:21:20.535Z,35.16
2018-08-31T12:22:20.518Z,34.85
2018-08-31T12:23:20.500Z,36.60
2018-08-31T12:24:20.485Z,35.22
2018-08-31T12:25:20.472Z,35.40
2018-08-31T12:26:20.452Z,34.83
2018-08-31T12:27:20.435Z,35.90
2018-08-31T12:28:20.419Z,36.79
2018-08-31T12:29:20.404Z,35.80
2018-08-31T12:30:20.388Z,35.90
2018-08-31T12:31:20.373Z,35.80
2018-08-31T12:32:20.356Z,35.77
2018-08-31T12:33:20.341Z,36.54
2018-08-31T12:34:20.323Z,36.74
2018-08-31T12:35:20.311Z,36.54
2018-08-31T12:36:20.292Z,35.86
2018-08-31T12:37:20.276Z,36.08
2018-08-31T12:38:20.258Z,36.85
2018-08-31T12:39:20.242Z,36.08
2018-08-31T12:40:20.227Z,36.25
2018-08-31T12:41:20.211Z,37.32
2018-08-31T12:42:20.193Z,37.63
2018-08-31T12:43:20.177Z,36.38
2018-08-31T12:44:20.207Z,36.00
2018-08-31T12:45:20.146Z,36.95
2018-08-31T12:46:20.134Z,37.48
2018-08-31T12:47:20.113Z,40.15
2018-08-31T12:48:20.097Z,39.88
2018-08-31T12:49:20.082Z,39.11
2018-08-31T12:50:20.063Z,39.04
2018-08-31T12:51:20.052Z,37.41
2018-08-31T12:52:20.033Z,36.19